Melbourne, FL

10:39 PM EDT on August 21, 2014 (GMT -0400)
Melbourne International | Change Station
CLOSE
Current Station
Airport
Location: Melbourne,
Elevation: 33 ft
Nearby Weather Stations

Elev 33 ft 28.10 °N, 80.65 °W | Updated 46 minutes ago

Clear
Clear
82 °F
Feels Like 89 °F
N
5
Wind Variable Wind from South

Today
High -- | Low -- °F
--% Chance of Precip.
Yesterday
High -- | Low -- °F
Precip. -- in
6:55 AM 7:55 PM
Waning Crescent, 11% visible
Pressure 30.10 in
Visibility 10.0 miles
Clouds Clear
Heat Index 89 °F
Dew Point 76 °F
Humidity 82%
Rainfall 0.00 in
Snow Depth Not available.
UV 0 out of 12
Pollen 7.50 out of 12
Air Quality Not available.
Flu Activity Not available.
METAR KMLB 220153Z 17004KT 10SM CLR 28/24 A3010 RMK AO2 SLP192 T02780244

More Conditions Fewer Conditions

Pressure 30.10 in
Visibility 10.0 miles
Clouds Clear
Heat Index 89 °F
Dew Point 76 °F
Humidity 82%
Rainfall 0.00 in
Snow Depth Not available.
UV 0 out of 12
Pollen 7.50 out of 12
Air Quality Not available.
Flu Activity Not available.
METAR KMLB 220153Z 17004KT 10SM CLR 28/24 A3010 RMK AO2 SLP192 T02780244

More Conditions Fewer Conditions

10-Day Weather Forecast

Almanac

Astronomy

Aug. 21, 2014 Rise Set
Actual Time 6:55 AM EDT 7:55 PM EDT
Civil Twilight 6:31 AM EDT 8:19 PM EDT
Nautical Twilight 6:02 AM EDT 8:48 PM EDT
Astronomical Twilight 5:32 AM EDT 9:17 PM EDT
Moon 3:32 AM EDT (8/21) 5:15 PM EDT (8/21)
Length of Visible Light 13h 48m
Length of Day
12h 59m
Tomorrow will be 1m 32s shorter.
Waning Crescent, 11% of the Moon is Illuminated
Today
Waning Crescent
Aug 25
New
Sep 2
First Quarter
Sep 8
Full
Sep 15
Last Quarter

Today's Extremes

State Highs State Lows

Community

WunderPhotos

Upload Photos

1,746,109 photos uploaded!

WunderBlogs® & News

Nearby

Snow Depth

Station Depth Elevation
No new snow has been reported.

Earthquake Activity

City Distance Mag. Time & Date
No recent earthquake activity has been reported nearby.
Minimum magnitude displayed is 2.5.

Coastal Water Temperatures

Place Temperature
Trident Pier, FL 84.0 °F
Fort Myers, FL 91.9 °F
Lake Worth, FL 88.0 °F

Nearby Weather Stations